Main page
METAR-TAF:

METAR-TAF

Airports :

George Best Belfast City Airport

Belfast City, Northern Ireland

latitude: 54-36N, longitude: 005-53W, elevation: 5 m

Current weather observation

The report was made 15 minutes ago, at 04:20 UTC
Wind 9 kt from the South/Southwest
Temperature 11°C
Humidity 87%
Pressure 1006 hPa
Visibility 10 km or more

METAR: EGAC 160420Z AUTO 20009KT 9999 NCD 11/09 Q1006

Time: 05:35 (04:35 UTC)

Forecast

The report was made 11 hours and 40 minutes ago, at 16:55 UTC
Forecast valid from 15 at 18 UTC to 15 at 21 UTC
Wind 12 kt from the Southwest
Visibility 10 km or more
Few clouds at a height of 2000 ft
Broken clouds at a height of 3500 ft
Temporary
from 15 at 18 UTC to 15 at 21 UTC
Visibility: 7000 m
rain, rain showers

TAF: EGAC 151655Z 1518/1521 23012KT 9999 FEW020 BKN035 TEMPO 1518/1521 7000 RA SHRA

Weather observations and forecasts of more than 4000 airports (METAR and TAF reports).

The available stations are represented by yellow and red dots on the map.

Hover mouse over dot to see the name of the station.

Then click to see weather observations and forecasts.

To change the map : click on the green buttons with a black cross to zoom in, on the green button with a dash to zoom out, or on the green arrows for adjacent maps.


METAR-TAF: